sensor_id;sensor_type;location;lat;lon;timestamp;temperature;humidity
68764;DHT22;55754;52.038;5.566;2023-02-15T00:01:31;4.70;94.40
68764;DHT22;55754;52.038;5.566;2023-02-15T00:03:57;4.70;94.40
68764;DHT22;55754;52.038;5.566;2023-02-15T00:06:23;4.70;94.50
68764;DHT22;55754;52.038;5.566;2023-02-15T00:08:48;4.70;94.40
68764;DHT22;55754;52.038;5.566;2023-02-15T00:11:16;4.70;94.50
68764;DHT22;55754;52.038;5.566;2023-02-15T00:14:04;4.70;94.40
68764;DHT22;55754;52.038;5.566;2023-02-15T00:16:30;4.70;94.80
68764;DHT22;55754;52.038;5.566;2023-02-15T00:18:59;4.60;95.20
68764;DHT22;55754;52.038;5.566;2023-02-15T00:21:31;4.60;95.50
68764;DHT22;55754;52.038;5.566;2023-02-15T00:23:58;4.60;95.50
68764;DHT22;55754;52.038;5.566;2023-02-15T00:26:24;4.60;95.40
68764;DHT22;55754;52.038;5.566;2023-02-15T00:28:50;4.70;95.70
68764;DHT22;55754;52.038;5.566;2023-02-15T00:31:15;4.70;95.60
68764;DHT22;55754;52.038;5.566;2023-02-15T00:33:41;4.70;95.60
68764;DHT22;55754;52.038;5.566;2023-02-15T00:36:09;4.60;95.20
68764;DHT22;55754;52.038;5.566;2023-02-15T00:38:35;4.60;95.40
68764;DHT22;55754;52.038;5.566;2023-02-15T00:41:04;4.60;95.50
68764;DHT22;55754;52.038;5.566;2023-02-15T00:43:31;4.60;95.50
68764;DHT22;55754;52.038;5.566;2023-02-15T00:45:57;4.60;95.40
68764;DHT22;55754;52.038;5.566;2023-02-15T00:48:23;4.60;95.20
68764;DHT22;55754;52.038;5.566;2023-02-15T00:50:50;4.50;95.10
68764;DHT22;55754;52.038;5.566;2023-02-15T00:53:16;4.50;95.10
68764;DHT22;55754;52.038;5.566;2023-02-15T00:55:42;4.50;95.50
68764;DHT22;55754;52.038;5.566;2023-02-15T00:58:09;4.50;95.60
68764;DHT22;55754;52.038;5.566;2023-02-15T01:00:37;4.40;95.60
68764;DHT22;55754;52.038;5.566;2023-02-15T01:03:03;4.40;95.60
68764;DHT22;55754;52.038;5.566;2023-02-15T01:05:29;4.40;95.70
68764;DHT22;55754;52.038;5.566;2023-02-15T01:07:56;4.40;96.00
68764;DHT22;55754;52.038;5.566;2023-02-15T01:10:22;4.40;96.00
68764;DHT22;55754;52.038;5.566;2023-02-15T01:12:47;4.40;95.90
68764;DHT22;55754;52.038;5.566;2023-02-15T01:15:13;4.40;96.00
68764;DHT22;55754;52.038;5.566;2023-02-15T01:17:39;4.30;95.80
68764;DHT22;55754;52.038;5.566;2023-02-15T01:20:05;4.30;95.60
68764;DHT22;55754;52.038;5.566;2023-02-15T01:22:31;4.30;95.60
68764;DHT22;55754;52.038;5.566;2023-02-15T01:24:57;4.30;95.70
68764;DHT22;55754;52.038;5.566;2023-02-15T01:27:22;4.30;95.60
68764;DHT22;55754;52.038;5.566;2023-02-15T01:29:48;4.20;95.40
68764;DHT22;55754;52.038;5.566;2023-02-15T01:32:13;4.20;95.40
68764;DHT22;55754;52.038;5.566;2023-02-15T01:34:39;4.20;95.50
68764;DHT22;55754;52.038;5.566;2023-02-15T01:37:04;4.20;95.40
68764;DHT22;55754;52.038;5.566;2023-02-15T01:39:30;4.10;95.50
68764;DHT22;55754;52.038;5.566;2023-02-15T01:41:55;4.10;95.60
68764;DHT22;55754;52.038;5.566;2023-02-15T01:44:53;4.10;95.60
68764;DHT22;55754;52.038;5.566;2023-02-15T01:47:58;4.10;95.70
68764;DHT22;55754;52.038;5.566;2023-02-15T01:50:25;4.10;95.50
68764;DHT22;55754;52.038;5.566;2023-02-15T01:52:56;4.10;95.50
68764;DHT22;55754;52.038;5.566;2023-02-15T01:55:25;4.10;95.40
68764;DHT22;55754;52.038;5.566;2023-02-15T01:57:51;4.00;95.50
68764;DHT22;55754;52.038;5.566;2023-02-15T02:00:17;4.00;95.80
68764;DHT22;55754;52.038;5.566;2023-02-15T02:02:46;4.00;95.70
68764;DHT22;55754;52.038;5.566;2023-02-15T02:05:12;4.00;95.60
68764;DHT22;55754;52.038;5.566;2023-02-15T02:07:41;4.00;95.70
68764;DHT22;55754;52.038;5.566;2023-02-15T02:10:11;4.00;95.70
68764;DHT22;55754;52.038;5.566;2023-02-15T02:12:37;4.00;95.80
68764;DHT22;55754;52.038;5.566;2023-02-15T02:15:06;3.90;95.80
68764;DHT22;55754;52.038;5.566;2023-02-15T02:23:51;3.90;96.70
68764;DHT22;55754;52.038;5.566;2023-02-15T02:29:21;4.00;96.50
68764;DHT22;55754;52.038;5.566;2023-02-15T02:34:58;4.10;97.10
68764;DHT22;55754;52.038;5.566;2023-02-15T02:43:54;4.10;97.20
68764;DHT22;55754;52.038;5.566;2023-02-15T02:46:52;4.10;97.10
68764;DHT22;55754;52.038;5.566;2023-02-15T02:49:33;4.10;97.50
68764;DHT22;55754;52.038;5.566;2023-02-15T02:52:04;4.10;96.80
68764;DHT22;55754;52.038;5.566;2023-02-15T02:54:32;4.00;96.80
68764;DHT22;55754;52.038;5.566;2023-02-15T02:57:03;4.00;97.00
68764;DHT22;55754;52.038;5.566;2023-02-15T02:59:41;4.00;97.70
68764;DHT22;55754;52.038;5.566;2023-02-15T03:02:37;4.10;98.10
68764;DHT22;55754;52.038;5.566;2023-02-15T03:05:08;4.10;98.60
68764;DHT22;55754;52.038;5.566;2023-02-15T03:07:36;4.10;97.70
68764;DHT22;55754;52.038;5.566;2023-02-15T03:10:04;4.10;97.60
68764;DHT22;55754;52.038;5.566;2023-02-15T03:12:36;4.10;97.70
68764;DHT22;55754;52.038;5.566;2023-02-15T03:15:19;4.10;97.60
68764;DHT22;55754;52.038;5.566;2023-02-15T03:17:48;4.10;97.80
68764;DHT22;55754;52.038;5.566;2023-02-15T03:22:48;4.10;97.60
68764;DHT22;55754;52.038;5.566;2023-02-15T03:25:25;4.10;97.70
68764;DHT22;55754;52.038;5.566;2023-02-15T03:27:55;4.10;97.90
68764;DHT22;55754;52.038;5.566;2023-02-15T03:30:25;4.10;97.60
68764;DHT22;55754;52.038;5.566;2023-02-15T03:32:51;4.10;97.40
68764;DHT22;55754;52.038;5.566;2023-02-15T03:35:22;4.10;97.50
68764;DHT22;55754;52.038;5.566;2023-02-15T03:37:56;4.10;98.00
68764;DHT22;55754;52.038;5.566;2023-02-15T03:40:23;4.10;98.00
68764;DHT22;55754;52.038;5.566;2023-02-15T03:43:55;4.10;98.20
68764;DHT22;55754;52.038;5.566;2023-02-15T03:45:57;4.10;98.00
68764;DHT22;55754;52.038;5.566;2023-02-15T03:48:35;4.10;98.10
68764;DHT22;55754;52.038;5.566;2023-02-15T03:51:20;4.10;98.00
68764;DHT22;55754;52.038;5.566;2023-02-15T03:54:04;4.00;97.80
68764;DHT22;55754;52.038;5.566;2023-02-15T03:56:31;4.00;97.80
68764;DHT22;55754;52.038;5.566;2023-02-15T03:58:58;4.00;97.80
68764;DHT22;55754;52.038;5.566;2023-02-15T04:01:54;4.00;98.00
68764;DHT22;55754;52.038;5.566;2023-02-15T04:04:41;4.00;98.10
68764;DHT22;55754;52.038;5.566;2023-02-15T04:07:08;4.00;98.00
68764;DHT22;55754;52.038;5.566;2023-02-15T04:09:35;4.00;97.50
68764;DHT22;55754;52.038;5.566;2023-02-15T04:12:19;3.90;97.60
68764;DHT22;55754;52.038;5.566;2023-02-15T04:14:45;3.90;97.70
68764;DHT22;55754;52.038;5.566;2023-02-15T04:17:29;3.90;97.80
68764;DHT22;55754;52.038;5.566;2023-02-15T04:19:55;3.90;97.60
68764;DHT22;55754;52.038;5.566;2023-02-15T04:22:39;3.80;97.50
68764;DHT22;55754;52.038;5.566;2023-02-15T04:25:23;3.70;97.30
68764;DHT22;55754;52.038;5.566;2023-02-15T04:27:51;3.70;97.40
68764;DHT22;55754;52.038;5.566;2023-02-15T04:30:18;3.70;97.70
68764;DHT22;55754;52.038;5.566;2023-02-15T04:32:44;3.70;97.70
68764;DHT22;55754;52.038;5.566;2023-02-15T04:35:10;3.70;98.00
68764;DHT22;55754;52.038;5.566;2023-02-15T04:37:37;3.80;98.10
68764;DHT22;55754;52.038;5.566;2023-02-15T04:40:09;3.80;98.30
68764;DHT22;55754;52.038;5.566;2023-02-15T04:42:34;3.80;98.70
68764;DHT22;55754;52.038;5.566;2023-02-15T04:45:00;3.90;98.70
68764;DHT22;55754;52.038;5.566;2023-02-15T04:47:26;3.90;98.60
68764;DHT22;55754;52.038;5.566;2023-02-15T04:49:51;3.90;98.60
68764;DHT22;55754;52.038;5.566;2023-02-15T04:52:17;3.90;98.60
68764;DHT22;55754;52.038;5.566;2023-02-15T04:54:43;3.90;99.00
68764;DHT22;55754;52.038;5.566;2023-02-15T04:57:09;3.90;98.60
68764;DHT22;55754;52.038;5.566;2023-02-15T04:59:34;4.00;98.60
68764;DHT22;55754;52.038;5.566;2023-02-15T05:02:00;4.00;98.50
68764;DHT22;55754;52.038;5.566;2023-02-15T05:04:26;3.90;98.60
68764;DHT22;55754;52.038;5.566;2023-02-15T05:06:51;3.90;98.60
68764;DHT22;55754;52.038;5.566;2023-02-15T05:09:17;3.90;98.50
68764;DHT22;55754;52.038;5.566;2023-02-15T05:11:42;3.90;98.40
68764;DHT22;55754;52.038;5.566;2023-02-15T05:14:08;3.90;98.60
68764;DHT22;55754;52.038;5.566;2023-02-15T05:16:33;3.90;98.50
68764;DHT22;55754;52.038;5.566;2023-02-15T05:18:59;3.90;98.30
68764;DHT22;55754;52.038;5.566;2023-02-15T05:21:28;3.90;98.50
68764;DHT22;55754;52.038;5.566;2023-02-15T05:23:53;3.90;98.40
68764;DHT22;55754;52.038;5.566;2023-02-15T05:26:21;3.90;98.30
68764;DHT22;55754;52.038;5.566;2023-02-15T05:29:06;3.90;98.40
68764;DHT22;55754;52.038;5.566;2023-02-15T05:31:32;3.90;98.50
68764;DHT22;55754;52.038;5.566;2023-02-15T05:33:58;3.90;98.60
68764;DHT22;55754;52.038;5.566;2023-02-15T05:36:24;3.90;98.50
68764;DHT22;55754;52.038;5.566;2023-02-15T05:38:49;3.80;98.60
68764;DHT22;55754;52.038;5.566;2023-02-15T05:41:15;3.80;98.50
68764;DHT22;55754;52.038;5.566;2023-02-15T05:43:40;3.80;98.40
68764;DHT22;55754;52.038;5.566;2023-02-15T05:46:06;3.80;98.60
68764;DHT22;55754;52.038;5.566;2023-02-15T05:48:32;3.80;98.70
68764;DHT22;55754;52.038;5.566;2023-02-15T05:53:28;3.80;98.60
68764;DHT22;55754;52.038;5.566;2023-02-15T05:55:54;3.80;98.40
68764;DHT22;55754;52.038;5.566;2023-02-15T05:58:25;3.80;98.50
68764;DHT22;55754;52.038;5.566;2023-02-15T06:00:54;3.80;98.60
68764;DHT22;55754;52.038;5.566;2023-02-15T06:03:19;3.80;98.50
68764;DHT22;55754;52.038;5.566;2023-02-15T06:05:45;3.80;98.80
68764;DHT22;55754;52.038;5.566;2023-02-15T06:08:10;3.80;98.40
68764;DHT22;55754;52.038;5.566;2023-02-15T06:10:36;3.80;98.40
68764;DHT22;55754;52.038;5.566;2023-02-15T06:13:01;3.70;98.20
68764;DHT22;55754;52.038;5.566;2023-02-15T06:15:27;3.70;98.10
68764;DHT22;55754;52.038;5.566;2023-02-15T06:17:52;3.70;98.30
68764;DHT22;55754;52.038;5.566;2023-02-15T06:20:18;3.70;98.10
68764;DHT22;55754;52.038;5.566;2023-02-15T06:22:44;3.70;98.30
68764;DHT22;55754;52.038;5.566;2023-02-15T06:25:09;3.70;98.20
68764;DHT22;55754;52.038;5.566;2023-02-15T06:27:36;3.70;98.20
68764;DHT22;55754;52.038;5.566;2023-02-15T06:30:06;3.70;98.70
68764;DHT22;55754;52.038;5.566;2023-02-15T06:32:32;3.70;98.20
68764;DHT22;55754;52.038;5.566;2023-02-15T06:34:57;3.60;98.20
68764;DHT22;55754;52.038;5.566;2023-02-15T06:37:23;3.60;98.20
68764;DHT22;55754;52.038;5.566;2023-02-15T06:39:48;3.60;98.10
68764;DHT22;55754;52.038;5.566;2023-02-15T06:42:14;3.60;98.00
68764;DHT22;55754;52.038;5.566;2023-02-15T06:44:39;3.60;98.10
68764;DHT22;55754;52.038;5.566;2023-02-15T06:47:05;3.60;98.00
68764;DHT22;55754;52.038;5.566;2023-02-15T06:49:30;3.60;98.00
68764;DHT22;55754;52.038;5.566;2023-02-15T06:51:56;3.50;98.00
68764;DHT22;55754;52.038;5.566;2023-02-15T06:54:21;3.50;98.20
68764;DHT22;55754;52.038;5.566;2023-02-15T06:56:47;3.50;98.00
68764;DHT22;55754;52.038;5.566;2023-02-15T06:59:12;3.50;98.00
68764;DHT22;55754;52.038;5.566;2023-02-15T07:01:38;3.50;98.10
68764;DHT22;55754;52.038;5.566;2023-02-15T07:04:04;3.50;97.80
68764;DHT22;55754;52.038;5.566;2023-02-15T07:06:33;3.50;97.90
68764;DHT22;55754;52.038;5.566;2023-02-15T07:08:59;3.50;98.00
68764;DHT22;55754;52.038;5.566;2023-02-15T07:11:24;3.50;97.90
68764;DHT22;55754;52.038;5.566;2023-02-15T07:14:08;3.50;97.90
68764;DHT22;55754;52.038;5.566;2023-02-15T07:16:34;3.60;98.00
68764;DHT22;55754;52.038;5.566;2023-02-15T07:19:00;3.50;97.90
68764;DHT22;55754;52.038;5.566;2023-02-15T07:21:25;3.60;97.80
68764;DHT22;55754;52.038;5.566;2023-02-15T07:23:51;3.60;97.70
68764;DHT22;55754;52.038;5.566;2023-02-15T07:26:17;3.60;98.00
68764;DHT22;55754;52.038;5.566;2023-02-15T07:28:42;3.60;97.80
68764;DHT22;55754;52.038;5.566;2023-02-15T07:31:08;3.70;97.60
68764;DHT22;55754;52.038;5.566;2023-02-15T07:33:34;3.70;97.60
68764;DHT22;55754;52.038;5.566;2023-02-15T07:36:01;3.70;97.60
68764;DHT22;55754;52.038;5.566;2023-02-15T07:38:32;3.70;97.50
68764;DHT22;55754;52.038;5.566;2023-02-15T07:40:59;3.70;97.60
68764;DHT22;55754;52.038;5.566;2023-02-15T07:43:26;3.80;97.50
68764;DHT22;55754;52.038;5.566;2023-02-15T07:45:51;3.80;97.60
68764;DHT22;55754;52.038;5.566;2023-02-15T07:48:17;3.90;97.50
68764;DHT22;55754;52.038;5.566;2023-02-15T07:50:43;3.90;97.40
68764;DHT22;55754;52.038;5.566;2023-02-15T07:53:09;3.90;97.40
68764;DHT22;55754;52.038;5.566;2023-02-15T07:55:34;4.00;97.30
68764;DHT22;55754;52.038;5.566;2023-02-15T07:58:00;4.00;97.30
68764;DHT22;55754;52.038;5.566;2023-02-15T08:00:26;4.10;97.10
68764;DHT22;55754;52.038;5.566;2023-02-15T08:02:54;4.80;97.10
68764;DHT22;55754;52.038;5.566;2023-02-15T08:05:39;4.80;97.00
68764;DHT22;55754;52.038;5.566;2023-02-15T08:08:08;5.20;96.90
68764;DHT22;55754;52.038;5.566;2023-02-15T08:10:35;5.40;96.70
68764;DHT22;55754;52.038;5.566;2023-02-15T08:13:19;4.80;96.20
68764;DHT22;55754;52.038;5.566;2023-02-15T08:15:50;4.40;96.00
68764;DHT22;55754;52.038;5.566;2023-02-15T08:18:16;5.50;96.20
68764;DHT22;55754;52.038;5.566;2023-02-15T08:20:42;4.50;95.70
68764;DHT22;55754;52.038;5.566;2023-02-15T08:23:09;4.60;95.60
68764;DHT22;55754;52.038;5.566;2023-02-15T08:25:35;4.60;95.60
68764;DHT22;55754;52.038;5.566;2023-02-15T08:28:00;4.60;95.50
68764;DHT22;55754;52.038;5.566;2023-02-15T08:30:26;4.50;95.60
68764;DHT22;55754;52.038;5.566;2023-02-15T08:32:51;4.60;95.50
68764;DHT22;55754;52.038;5.566;2023-02-15T08:35:17;4.70;95.40
68764;DHT22;55754;52.038;5.566;2023-02-15T08:37:42;4.70;95.40
68764;DHT22;55754;52.038;5.566;2023-02-15T08:40:08;4.80;95.30
68764;DHT22;55754;52.038;5.566;2023-02-15T08:42:34;4.90;95.20
68764;DHT22;55754;52.038;5.566;2023-02-15T08:44:59;5.00;95.10
68764;DHT22;55754;52.038;5.566;2023-02-15T08:47:25;5.10;94.80
68764;DHT22;55754;52.038;5.566;2023-02-15T08:49:50;5.20;94.60
68764;DHT22;55754;52.038;5.566;2023-02-15T08:52:16;5.40;94.50
68764;DHT22;55754;52.038;5.566;2023-02-15T08:54:42;5.40;94.40
68764;DHT22;55754;52.038;5.566;2023-02-15T08:57:08;5.50;94.30
68764;DHT22;55754;52.038;5.566;2023-02-15T08:59:34;5.50;94.20
68764;DHT22;55754;52.038;5.566;2023-02-15T09:02:00;5.70;93.70
68764;DHT22;55754;52.038;5.566;2023-02-15T09:04:26;5.90;93.40
68764;DHT22;55754;52.038;5.566;2023-02-15T09:06:52;5.90;93.30
68764;DHT22;55754;52.038;5.566;2023-02-15T09:09:18;6.00;93.10
68764;DHT22;55754;52.038;5.566;2023-02-15T09:11:46;6.10;93.20
68764;DHT22;55754;52.038;5.566;2023-02-15T09:14:15;6.30;92.70
68764;DHT22;55754;52.038;5.566;2023-02-15T09:16:43;6.30;92.70
68764;DHT22;55754;52.038;5.566;2023-02-15T09:19:11;6.50;92.40
68764;DHT22;55754;52.038;5.566;2023-02-15T09:21:37;6.50;92.30
68764;DHT22;55754;52.038;5.566;2023-02-15T09:24:12;6.60;92.00
68764;DHT22;55754;52.038;5.566;2023-02-15T09:26:41;6.60;91.70
68764;DHT22;55754;52.038;5.566;2023-02-15T09:29:07;6.60;91.80
68764;DHT22;55754;52.038;5.566;2023-02-15T09:31:41;6.60;91.70
68764;DHT22;55754;52.038;5.566;2023-02-15T09:34:09;6.70;91.90
68764;DHT22;55754;52.038;5.566;2023-02-15T09:36:37;6.80;92.00
68764;DHT22;55754;52.038;5.566;2023-02-15T09:39:08;6.90;92.10
68764;DHT22;55754;52.038;5.566;2023-02-15T09:51:12;7.30;91.40
68764;DHT22;55754;52.038;5.566;2023-02-15T09:56:38;7.60;91.00
68764;DHT22;55754;52.038;5.566;2023-02-15T10:02:00;7.90;90.00
68764;DHT22;55754;52.038;5.566;2023-02-15T10:20:28;8.50;85.90
68764;DHT22;55754;52.038;5.566;2023-02-15T10:26:10;8.70;85.70
68764;DHT22;55754;52.038;5.566;2023-02-15T10:28:52;8.80;85.80
68764;DHT22;55754;52.038;5.566;2023-02-15T10:31:48;8.90;85.90
68764;DHT22;55754;52.038;5.566;2023-02-15T10:34:39;9.00;85.50
68764;DHT22;55754;52.038;5.566;2023-02-15T10:42:45;9.30;85.00
68764;DHT22;55754;52.038;5.566;2023-02-15T10:50:59;9.50;82.70
68764;DHT22;55754;52.038;5.566;2023-02-15T10:59:06;9.70;82.00
68764;DHT22;55754;52.038;5.566;2023-02-15T11:01:40;9.70;81.50
68764;DHT22;55754;52.038;5.566;2023-02-15T11:04:34;9.90;82.20
68764;DHT22;55754;52.038;5.566;2023-02-15T11:07:18;10.00;81.20
68764;DHT22;55754;52.038;5.566;2023-02-15T11:09:51;10.20;80.50
68764;DHT22;55754;52.038;5.566;2023-02-15T11:12:24;10.30;80.70
68764;DHT22;55754;52.038;5.566;2023-02-15T11:15:05;10.40;80.10
68764;DHT22;55754;52.038;5.566;2023-02-15T11:17:40;10.50;78.70
68764;DHT22;55754;52.038;5.566;2023-02-15T11:20:35;10.60;79.60
68764;DHT22;55754;52.038;5.566;2023-02-15T11:23:02;10.70;77.30
68764;DHT22;55754;52.038;5.566;2023-02-15T11:25:31;10.70;78.80
68764;DHT22;55754;52.038;5.566;2023-02-15T11:27:57;10.70;78.50
68764;DHT22;55754;52.038;5.566;2023-02-15T11:30:28;10.80;78.40
68764;DHT22;55754;52.038;5.566;2023-02-15T11:33:01;10.80;78.90
68764;DHT22;55754;52.038;5.566;2023-02-15T11:35:33;10.80;78.70
68764;DHT22;55754;52.038;5.566;2023-02-15T11:38:14;10.80;78.40
68764;DHT22;55754;52.038;5.566;2023-02-15T11:40:49;10.80;78.20
68764;DHT22;55754;52.038;5.566;2023-02-15T11:43:23;10.80;77.20
68764;DHT22;55754;52.038;5.566;2023-02-15T11:45:51;10.90;78.20
68764;DHT22;55754;52.038;5.566;2023-02-15T11:48:16;11.00;78.60
68764;DHT22;55754;52.038;5.566;2023-02-15T11:50:43;11.00;78.40
68764;DHT22;55754;52.038;5.566;2023-02-15T11:53:13;11.00;77.70
68764;DHT22;55754;52.038;5.566;2023-02-15T11:55:40;11.00;77.50
68764;DHT22;55754;52.038;5.566;2023-02-15T12:00:47;11.10;77.30
68764;DHT22;55754;52.038;5.566;2023-02-15T12:03:33;11.20;77.90
68764;DHT22;55754;52.038;5.566;2023-02-15T12:06:04;11.20;77.20
68764;DHT22;55754;52.038;5.566;2023-02-15T12:08:38;11.20;77.40
68764;DHT22;55754;52.038;5.566;2023-02-15T12:11:18;11.20;76.70
68764;DHT22;55754;52.038;5.566;2023-02-15T12:13:59;11.40;76.90
68764;DHT22;55754;52.038;5.566;2023-02-15T12:16:26;11.50;76.20
68764;DHT22;55754;52.038;5.566;2023-02-15T12:18:55;11.50;76.80
68764;DHT22;55754;52.038;5.566;2023-02-15T12:21:28;11.50;75.20
68764;DHT22;55754;52.038;5.566;2023-02-15T12:23:57;11.50;74.00
68764;DHT22;55754;52.038;5.566;2023-02-15T12:26:29;11.50;75.80
68764;DHT22;55754;52.038;5.566;2023-02-15T12:29:07;11.60;75.80
68764;DHT22;55754;52.038;5.566;2023-02-15T12:31:44;11.60;75.40
68764;DHT22;55754;52.038;5.566;2023-02-15T12:34:20;11.80;73.10
68764;DHT22;55754;52.038;5.566;2023-02-15T12:36:48;11.60;74.60
68764;DHT22;55754;52.038;5.566;2023-02-15T12:39:19;11.80;74.80
68764;DHT22;55754;52.038;5.566;2023-02-15T12:44:25;11.90;72.90
68764;DHT22;55754;52.038;5.566;2023-02-15T12:49:42;12.00;73.40
68764;DHT22;55754;52.038;5.566;2023-02-15T12:52:23;12.10;74.20
68764;DHT22;55754;52.038;5.566;2023-02-15T12:54:49;12.10;73.20
68764;DHT22;55754;52.038;5.566;2023-02-15T12:57:31;12.00;74.10
68764;DHT22;55754;52.038;5.566;2023-02-15T13:00:00;11.90;73.20
68764;DHT22;55754;52.038;5.566;2023-02-15T13:02:35;11.90;73.60
68764;DHT22;55754;52.038;5.566;2023-02-15T13:07:56;13.00;74.20
68764;DHT22;55754;52.038;5.566;2023-02-15T13:12:50;12.00;74.90
68764;DHT22;55754;52.038;5.566;2023-02-15T13:17:55;12.00;74.60
68764;DHT22;55754;52.038;5.566;2023-02-15T13:20:21;11.90;74.80
68764;DHT22;55754;52.038;5.566;2023-02-15T13:22:51;11.90;75.00
68764;DHT22;55754;52.038;5.566;2023-02-15T13:25:21;12.00;75.10
68764;DHT22;55754;52.038;5.566;2023-02-15T13:28:10;11.90;74.70
68764;DHT22;55754;52.038;5.566;2023-02-15T13:30:44;11.90;75.10
68764;DHT22;55754;52.038;5.566;2023-02-15T13:33:29;11.90;74.50
68764;DHT22;55754;52.038;5.566;2023-02-15T13:36:05;11.90;74.70
68764;DHT22;55754;52.038;5.566;2023-02-15T13:39:05;11.90;74.80
68764;DHT22;55754;52.038;5.566;2023-02-15T13:42:25;11.90;74.10
68764;DHT22;55754;52.038;5.566;2023-02-15T13:47:28;12.00;74.50
68764;DHT22;55754;52.038;5.566;2023-02-15T13:53:22;12.00;73.30
68764;DHT22;55754;52.038;5.566;2023-02-15T13:56:11;12.10;74.40
68764;DHT22;55754;52.038;5.566;2023-02-15T14:07:01;12.10;74.00
68764;DHT22;55754;52.038;5.566;2023-02-15T14:09:47;12.10;74.10
68764;DHT22;55754;52.038;5.566;2023-02-15T14:12:43;12.10;74.00
68764;DHT22;55754;52.038;5.566;2023-02-15T14:26:40;12.10;73.50
68764;DHT22;55754;52.038;5.566;2023-02-15T14:30:13;12.10;74.60
68764;DHT22;55754;52.038;5.566;2023-02-15T14:35:28;12.20;74.00
68764;DHT22;55754;52.038;5.566;2023-02-15T14:38:36;12.20;74.60
68764;DHT22;55754;52.038;5.566;2023-02-15T14:41:04;12.10;73.00
68764;DHT22;55754;52.038;5.566;2023-02-15T14:44:08;12.10;74.20
68764;DHT22;55754;52.038;5.566;2023-02-15T14:59:46;12.10;73.30
68764;DHT22;55754;52.038;5.566;2023-02-15T15:02:21;12.20;73.50
68764;DHT22;55754;52.038;5.566;2023-02-15T15:07:25;12.10;74.10
68764;DHT22;55754;52.038;5.566;2023-02-15T15:15:57;12.10;72.00
68764;DHT22;55754;52.038;5.566;2023-02-15T15:18:49;12.10;73.70
68764;DHT22;55754;52.038;5.566;2023-02-15T15:21:54;12.10;73.20
68764;DHT22;55754;52.038;5.566;2023-02-15T15:27:37;12.00;72.80
68764;DHT22;55754;52.038;5.566;2023-02-15T15:32:57;12.00;72.80
68764;DHT22;55754;52.038;5.566;2023-02-15T15:46:46;12.00;74.80
68764;DHT22;55754;52.038;5.566;2023-02-15T15:49:15;11.90;74.70
68764;DHT22;55754;52.038;5.566;2023-02-15T15:51:42;11.90;75.20
68764;DHT22;55754;52.038;5.566;2023-02-15T15:54:21;11.90;75.60
68764;DHT22;55754;52.038;5.566;2023-02-15T15:56:51;11.90;75.70
68764;DHT22;55754;52.038;5.566;2023-02-15T15:59:43;11.90;75.70
68764;DHT22;55754;52.038;5.566;2023-02-15T16:02:16;11.90;74.80
68764;DHT22;55754;52.038;5.566;2023-02-15T16:04:42;11.90;74.90
68764;DHT22;55754;52.038;5.566;2023-02-15T16:09:59;11.90;74.70
68764;DHT22;55754;52.038;5.566;2023-02-15T16:12:30;11.90;74.00
68764;DHT22;55754;52.038;5.566;2023-02-15T16:14:57;11.80;74.90
68764;DHT22;55754;52.038;5.566;2023-02-15T16:17:26;11.80;75.40
68764;DHT22;55754;52.038;5.566;2023-02-15T16:20:11;11.80;75.00
68764;DHT22;55754;52.038;5.566;2023-02-15T16:22:39;11.80;75.10
68764;DHT22;55754;52.038;5.566;2023-02-15T16:28:11;11.70;75.40
68764;DHT22;55754;52.038;5.566;2023-02-15T16:30:38;11.60;76.00
68764;DHT22;55754;52.038;5.566;2023-02-15T16:35:30;11.60;76.30
68764;DHT22;55754;52.038;5.566;2023-02-15T16:37:56;11.60;76.50
68764;DHT22;55754;52.038;5.566;2023-02-15T16:42:56;11.50;76.50
68764;DHT22;55754;52.038;5.566;2023-02-15T16:45:24;11.50;76.90
68764;DHT22;55754;52.038;5.566;2023-02-15T16:47:54;11.40;77.20
68764;DHT22;55754;52.038;5.566;2023-02-15T16:52:53;11.30;77.50
68764;DHT22;55754;52.038;5.566;2023-02-15T16:55:25;11.30;77.90
68764;DHT22;55754;52.038;5.566;2023-02-15T16:57:53;11.30;77.60
68764;DHT22;55754;52.038;5.566;2023-02-15T17:00:25;11.30;78.00
68764;DHT22;55754;52.038;5.566;2023-02-15T17:05:45;11.20;78.10
68764;DHT22;55754;52.038;5.566;2023-02-15T17:08:15;11.10;78.20
68764;DHT22;55754;52.038;5.566;2023-02-15T17:11:15;11.10;78.40
68764;DHT22;55754;52.038;5.566;2023-02-15T17:16:40;11.10;78.20
68764;DHT22;55754;52.038;5.566;2023-02-15T17:19:15;11.00;78.60
68764;DHT22;55754;52.038;5.566;2023-02-15T17:21:46;11.00;78.50
68764;DHT22;55754;52.038;5.566;2023-02-15T17:24:19;11.00;79.00
68764;DHT22;55754;52.038;5.566;2023-02-15T17:26:51;10.90;79.30
68764;DHT22;55754;52.038;5.566;2023-02-15T17:29:43;10.90;79.60
68764;DHT22;55754;52.038;5.566;2023-02-15T17:32:16;10.90;79.00
68764;DHT22;55754;52.038;5.566;2023-02-15T17:34:48;10.80;79.50
68764;DHT22;55754;52.038;5.566;2023-02-15T17:37:24;10.70;79.60
68764;DHT22;55754;52.038;5.566;2023-02-15T17:39:50;10.90;79.90
68764;DHT22;55754;52.038;5.566;2023-02-15T17:42:16;10.70;80.40
68764;DHT22;55754;52.038;5.566;2023-02-15T17:44:42;10.70;80.40
68764;DHT22;55754;52.038;5.566;2023-02-15T17:47:13;10.60;80.50
68764;DHT22;55754;52.038;5.566;2023-02-15T17:49:40;10.60;80.80
68764;DHT22;55754;52.038;5.566;2023-02-15T17:52:08;10.40;80.80
68764;DHT22;55754;52.038;5.566;2023-02-15T17:54:34;10.50;80.90
68764;DHT22;55754;52.038;5.566;2023-02-15T17:57:20;10.50;81.00
68764;DHT22;55754;52.038;5.566;2023-02-15T17:59:45;11.20;81.40
68764;DHT22;55754;52.038;5.566;2023-02-15T18:02:34;10.40;81.00
68764;DHT22;55754;52.038;5.566;2023-02-15T18:05:18;10.40;81.00
68764;DHT22;55754;52.038;5.566;2023-02-15T18:08:03;10.40;81.30
68764;DHT22;55754;52.038;5.566;2023-02-15T18:10:47;10.30;81.50
68764;DHT22;55754;52.038;5.566;2023-02-15T18:13:34;10.30;81.90
68764;DHT22;55754;52.038;5.566;2023-02-15T18:15:59;10.30;83.10
68764;DHT22;55754;52.038;5.566;2023-02-15T18:18:25;10.20;81.90
68764;DHT22;55754;52.038;5.566;2023-02-15T18:20:50;10.30;82.10
68764;DHT22;55754;52.038;5.566;2023-02-15T18:23:16;10.20;82.40
68764;DHT22;55754;52.038;5.566;2023-02-15T18:25:42;10.20;82.40
68764;DHT22;55754;52.038;5.566;2023-02-15T18:28:08;10.10;82.20
68764;DHT22;55754;52.038;5.566;2023-02-15T18:30:35;10.20;82.10
68764;DHT22;55754;52.038;5.566;2023-02-15T18:33:01;10.10;82.10
68764;DHT22;55754;52.038;5.566;2023-02-15T18:35:31;10.10;82.20
68764;DHT22;55754;52.038;5.566;2023-02-15T18:37:59;10.10;82.10
68764;DHT22;55754;52.038;5.566;2023-02-15T18:40:26;10.10;82.10
68764;DHT22;55754;52.038;5.566;2023-02-15T18:42:53;10.10;81.80
68764;DHT22;55754;52.038;5.566;2023-02-15T18:45:26;10.10;81.90
68764;DHT22;55754;52.038;5.566;2023-02-15T18:48:00;10.10;81.80
68764;DHT22;55754;52.038;5.566;2023-02-15T18:50:30;10.10;82.10
68764;DHT22;55754;52.038;5.566;2023-02-15T18:53:03;10.00;82.10
68764;DHT22;55754;52.038;5.566;2023-02-15T18:55:30;10.00;82.30
68764;DHT22;55754;52.038;5.566;2023-02-15T18:57:59;11.30;83.50
68764;DHT22;55754;52.038;5.566;2023-02-15T19:00:28;9.90;82.70
68764;DHT22;55754;52.038;5.566;2023-02-15T19:02:56;9.80;82.80